createdAt,value
2017-10-04T00:02:26.708Z,101289.28
2017-10-04T00:04:55.318Z,101292.77
2017-10-04T00:07:23.998Z,101287.55
2017-10-04T00:09:52.601Z,101284.94
2017-10-04T00:12:21.260Z,101292.20
2017-10-04T00:14:49.885Z,101286.16
2017-10-04T00:17:18.499Z,101287.02
2017-10-04T00:19:47.169Z,101287.81
2017-10-04T00:22:15.826Z,101289.07
2017-10-04T00:24:44.450Z,101289.45
2017-10-04T00:27:13.133Z,101286.88
2017-10-04T00:29:41.742Z,101293.38
2017-10-04T00:32:10.404Z,101287.41
2017-10-04T00:34:39.011Z,101286.12
2017-10-04T00:37:07.625Z,101282.67
2017-10-04T00:39:36.277Z,101286.16
2017-10-04T00:42:04.915Z,101283.58
2017-10-04T00:44:33.597Z,101282.78
2017-10-04T00:47:02.205Z,101274.95
2017-10-04T00:49:30.869Z,101269.39
2017-10-04T00:51:59.519Z,101270.64
2017-10-04T00:54:28.183Z,101282.14
2017-10-04T00:56:56.497Z,101276.20
2017-10-04T00:59:25.169Z,101280.09
2017-10-04T01:01:53.900Z,101279.16
2017-10-04T01:04:22.533Z,101274.53
2017-10-04T01:06:51.212Z,101269.28
2017-10-04T01:09:19.865Z,101269.39
2017-10-04T01:11:48.483Z,101267.61
2017-10-04T01:14:17.141Z,101266.81
2017-10-04T01:16:45.765Z,101270.19
2017-10-04T01:19:14.401Z,101275.82
2017-10-04T01:21:42.756Z,101274.50
2017-10-04T01:24:11.428Z,101272.45
2017-10-04T01:26:40.117Z,101266.39
2017-10-04T01:29:08.795Z,101270.70
2017-10-04T01:31:37.489Z,101268.52
2017-10-04T01:34:06.293Z,101266.36
2017-10-04T01:36:34.966Z,101264.69
2017-10-04T01:39:03.366Z,101271.58
2017-10-04T01:41:32.031Z,101268.14
2017-10-04T01:44:00.652Z,101270.30
2017-10-04T01:46:29.315Z,101275.86
2017-10-04T01:48:57.918Z,101277.91
2017-10-04T01:51:26.565Z,101278.47
2017-10-04T01:53:55.161Z,101280.59
2017-10-04T01:56:23.842Z,101274.19
2017-10-04T01:58:52.525Z,101268.17
2017-10-04T02:01:21.169Z,101271.58
2017-10-04T02:03:49.858Z,101269.56
2017-10-04T02:06:18.498Z,101266.95
2017-10-04T02:08:47.106Z,101261.02
2017-10-04T02:11:15.824Z,101264.00
2017-10-04T02:13:44.458Z,101262.34
2017-10-04T02:16:13.061Z,101260.63
2017-10-04T02:18:41.709Z,101245.75
2017-10-04T02:21:10.326Z,101247.50
2017-10-04T02:23:38.964Z,101244.89
2017-10-04T02:26:07.568Z,101247.50
2017-10-04T02:28:38.333Z,101241.13
2017-10-04T02:31:06.975Z,101249.38
2017-10-04T02:33:35.573Z,101252.34
2017-10-04T02:36:04.258Z,101244.73
2017-10-04T02:38:36.594Z,101256.20
2017-10-04T02:41:05.245Z,101255.85
2017-10-04T02:43:33.847Z,101266.18
2017-10-04T02:46:02.513Z,101261.03
2017-10-04T02:48:34.810Z,101262.36
2017-10-04T02:51:03.619Z,101265.42
2017-10-04T02:53:32.234Z,101261.53
2017-10-04T02:56:00.867Z,101252.56
2017-10-04T02:58:29.557Z,101253.08
2017-10-04T03:00:58.254Z,101238.06
2017-10-04T03:03:26.916Z,101224.36
2017-10-04T03:05:55.579Z,101217.93
2017-10-04T03:08:24.185Z,101218.42
2017-10-04T03:10:52.862Z,101208.12
2017-10-04T03:13:21.460Z,101214.63
2017-10-04T03:15:50.142Z,101205.28
2017-10-04T03:18:18.754Z,101215.92
2017-10-04T03:20:47.614Z,101215.16
2017-10-04T03:23:16.301Z,101206.16
2017-10-04T03:25:44.912Z,101201.84
2017-10-04T03:28:13.564Z,101198.96
2017-10-04T03:30:42.226Z,101202.38
2017-10-04T03:33:10.830Z,101191.28
2017-10-04T03:35:39.701Z,101183.52
2017-10-04T03:38:08.309Z,101174.06
2017-10-04T03:40:36.969Z,101173.69
2017-10-04T03:43:05.585Z,101173.28
2017-10-04T03:45:34.193Z,101157.01
2017-10-04T03:48:02.840Z,101157.01
2017-10-04T03:50:31.496Z,101160.83
2017-10-04T03:53:00.177Z,101167.75
2017-10-04T03:55:28.798Z,101163.82
2017-10-04T03:57:57.445Z,101151.06
2017-10-04T04:00:30.992Z,101151.52
2017-10-04T04:02:59.660Z,101140.81
2017-10-04T04:05:28.297Z,101136.16
2017-10-04T04:07:56.921Z,101123.38
2017-10-04T04:10:25.584Z,101127.98
2017-10-04T04:12:54.205Z,101130.11
2017-10-04T04:15:22.890Z,101128.44
2017-10-04T04:17:51.501Z,101124.70
2017-10-04T04:20:20.224Z,101122.05
2017-10-04T04:22:48.865Z,101125.98
2017-10-04T04:40:42.106Z,101105.92
2017-10-04T04:45:57.548Z,101090.04
2017-10-04T04:48:26.168Z,101096.89
2017-10-04T04:50:54.793Z,101080.66
2017-10-04T04:53:23.457Z,101085.70
2017-10-04T04:55:52.073Z,101091.70
2017-10-04T04:58:20.678Z,101100.67
2017-10-04T05:01:04.274Z,101097.23
2017-10-04T05:03:49.524Z,101092.50
2017-10-04T05:06:19.136Z,101101.87
2017-10-04T05:08:47.781Z,101105.70
2017-10-04T05:11:16.585Z,101102.64
2017-10-04T05:13:45.213Z,101103.97
2017-10-04T05:16:13.917Z,101095.30
2017-10-04T05:18:42.526Z,101106.00
2017-10-04T05:21:11.177Z,101096.92
2017-10-04T05:23:39.809Z,101093.94
2017-10-04T05:26:24.025Z,101089.25
2017-10-04T05:28:53.665Z,101090.00
2017-10-04T05:31:21.964Z,101082.78
2017-10-04T05:33:50.727Z,101090.46
2017-10-04T05:36:19.449Z,101093.38
2017-10-04T05:38:48.566Z,101086.08
2017-10-04T05:41:17.231Z,101075.70
2017-10-04T05:43:45.837Z,101071.36
2017-10-04T05:46:14.495Z,101083.39
2017-10-04T05:48:43.098Z,101082.94
2017-10-04T05:51:11.778Z,101097.01
2017-10-04T05:53:40.382Z,101096.06
2017-10-04T05:56:08.993Z,101101.66
2017-10-04T05:58:37.746Z,101093.48
2017-10-04T06:01:06.366Z,101091.33
2017-10-04T06:03:35.047Z,101084.86
2017-10-04T06:06:03.706Z,101083.05
2017-10-04T06:08:35.428Z,101085.69
2017-10-04T06:11:04.096Z,101086.52
2017-10-04T06:13:32.709Z,101087.36
2017-10-04T06:16:01.337Z,101089.89
2017-10-04T06:18:29.979Z,101088.95
2017-10-04T06:20:58.633Z,101091.90
2017-10-04T06:23:27.280Z,101093.11
2017-10-04T06:25:55.943Z,101090.05
2017-10-04T06:28:24.568Z,101088.26
2017-10-04T06:30:53.249Z,101089.05
2017-10-04T06:33:21.881Z,101087.31
2017-10-04T06:35:50.418Z,101081.30
2017-10-04T06:38:19.041Z,101083.79
2017-10-04T06:40:47.718Z,101087.20
2017-10-04T06:43:16.352Z,101083.25
2017-10-04T06:45:44.953Z,101068.23
2017-10-04T06:48:13.626Z,101078.38
2017-10-04T06:50:42.387Z,101070.61
2017-10-04T06:53:11.080Z,101067.17
2017-10-04T06:55:39.702Z,101073.14
2017-10-04T06:58:08.226Z,101068.83
2017-10-04T07:00:36.895Z,101067.92
2017-10-04T07:03:05.505Z,101067.47
2017-10-04T07:05:34.213Z,101069.05
2017-10-04T07:08:02.834Z,101059.17
2017-10-04T07:10:31.573Z,101060.84
2017-10-04T07:13:00.391Z,101052.20
2017-10-04T07:15:29.006Z,101046.98
2017-10-04T07:17:57.691Z,101047.77
2017-10-04T07:20:26.292Z,101042.16
2017-10-04T07:22:54.948Z,101042.91
2017-10-04T07:25:23.566Z,101048.33
2017-10-04T07:27:52.214Z,101046.62
2017-10-04T07:30:20.847Z,101050.94
2017-10-04T07:32:49.496Z,101038.73
2017-10-04T07:35:18.181Z,101040.41
2017-10-04T07:37:46.829Z,101035.22
2017-10-04T07:40:15.491Z,101030.02
2017-10-04T07:42:44.231Z,101034.17
2017-10-04T07:45:12.926Z,101031.02
2017-10-04T07:47:41.605Z,101031.44
2017-10-04T07:50:10.277Z,101026.59
2017-10-04T07:52:38.925Z,101024.75
2017-10-04T07:55:07.545Z,101023.27
2017-10-04T07:57:36.269Z,101024.47
2017-10-04T08:00:04.576Z,101016.96
2017-10-04T08:02:33.175Z,101023.31
2017-10-04T08:05:01.689Z,101028.30
2017-10-04T08:07:30.345Z,101034.95
2017-10-04T08:09:58.954Z,101024.10
2017-10-04T08:12:27.570Z,101026.09
2017-10-04T08:14:56.237Z,101030.25
2017-10-04T08:17:24.859Z,101023.23
2017-10-04T08:19:53.465Z,101024.34
2017-10-04T08:22:22.100Z,101015.70
2017-10-04T08:24:50.713Z,101023.27
2017-10-04T08:27:19.388Z,101023.10
2017-10-04T08:29:48.006Z,101024.34
2017-10-04T08:32:16.669Z,101016.86
2017-10-04T08:34:45.303Z,101010.00
2017-10-04T08:37:13.953Z,101003.06
2017-10-04T08:39:42.613Z,101002.02
2017-10-04T08:42:11.265Z,101001.81
2017-10-04T08:44:39.912Z,101005.43
2017-10-04T08:47:19.528Z,101011.25
2017-10-04T08:49:48.195Z,101011.02
2017-10-04T08:52:16.812Z,101011.52
2017-10-04T08:54:45.464Z,101008.48
2017-10-04T08:57:14.078Z,101011.36
2017-10-04T08:59:42.686Z,101002.08
2017-10-04T09:02:11.350Z,101012.80
2017-10-04T09:04:51.125Z,101009.72
2017-10-04T09:07:19.735Z,101009.67
2017-10-04T09:09:48.350Z,101010.13
2017-10-04T09:12:17.018Z,101028.00
2017-10-04T09:14:45.636Z,101013.74
2017-10-04T09:17:14.311Z,101012.91
2017-10-04T09:19:42.910Z,101020.14
2017-10-04T09:22:11.586Z,101023.27
2017-10-04T09:24:40.194Z,101012.04
2017-10-04T09:27:08.853Z,101037.27
2017-10-04T09:29:37.498Z,101028.11
2017-10-04T09:32:06.110Z,101013.80
2017-10-04T09:34:34.770Z,101011.60
2017-10-04T09:37:03.425Z,101001.95
2017-10-04T09:39:32.069Z,100993.80
2017-10-04T09:42:00.742Z,100988.14
2017-10-04T09:44:29.413Z,100983.72
2017-10-04T09:46:58.053Z,100960.94
2017-10-04T09:49:26.670Z,100964.75
2017-10-04T09:51:55.354Z,100963.93
2017-10-04T09:54:24.005Z,100962.95
2017-10-04T09:56:52.602Z,100956.42
2017-10-04T09:59:21.250Z,100957.21
2017-10-04T10:01:49.909Z,100953.06
2017-10-04T10:04:18.563Z,100949.19
2017-10-04T10:06:47.174Z,100939.75
2017-10-04T10:09:15.827Z,100950.52
2017-10-04T10:11:44.460Z,100943.53
2017-10-04T10:14:13.129Z,100954.30
2017-10-04T10:16:42.600Z,100951.39
2017-10-04T10:19:11.285Z,100956.59
2017-10-04T10:21:39.958Z,100950.84
2017-10-04T10:24:08.571Z,100956.88
2017-10-04T10:26:37.251Z,100943.57
2017-10-04T10:29:05.855Z,100948.73
2017-10-04T10:31:34.461Z,100954.63
2017-10-04T10:34:03.105Z,100949.34
2017-10-04T10:36:31.591Z,100951.83
2017-10-04T10:39:00.245Z,100950.26
2017-10-04T10:41:28.857Z,100954.95
2017-10-04T10:43:57.514Z,100960.48
2017-10-04T10:46:26.116Z,100946.17
2017-10-04T10:48:54.782Z,100952.97
2017-10-04T10:51:23.427Z,100953.38
2017-10-04T10:53:52.075Z,100955.08
2017-10-04T10:56:20.742Z,100944.31
2017-10-04T10:58:49.373Z,100954.12
2017-10-04T11:01:18.256Z,100948.17
2017-10-04T11:03:46.944Z,100943.89
2017-10-04T11:06:15.630Z,100952.66
2017-10-04T11:08:44.281Z,100946.62
2017-10-04T11:11:12.899Z,100943.25
2017-10-04T11:13:41.561Z,100941.46
2017-10-04T11:16:10.217Z,100934.09
2017-10-04T11:18:39.027Z,100935.38
2017-10-04T11:21:07.693Z,100925.11
2017-10-04T11:23:36.309Z,100915.72
2017-10-04T11:26:04.921Z,100904.48
2017-10-04T11:28:36.347Z,100916.00
2017-10-04T11:31:04.995Z,100916.00
2017-10-04T11:33:33.641Z,100901.26
2017-10-04T11:36:02.262Z,100904.34
2017-10-04T11:41:04.183Z,100903.09
2017-10-04T11:43:32.843Z,100902.22
2017-10-04T11:46:01.450Z,100897.94
2017-10-04T11:48:30.139Z,100894.86
2017-10-04T11:50:58.750Z,100893.11
2017-10-04T11:53:27.400Z,100897.85
2017-10-04T11:55:56.054Z,100878.97
2017-10-04T11:58:24.720Z,100887.95
2017-10-04T12:00:53.361Z,100883.14
2017-10-04T12:03:22.023Z,100883.19
2017-10-04T12:05:50.640Z,100879.64
2017-10-04T12:08:19.292Z,100863.25
2017-10-04T12:10:47.912Z,100855.92
2017-10-04T12:13:16.534Z,100855.47
2017-10-04T12:15:45.216Z,100852.42
2017-10-04T12:18:13.833Z,100848.70
2017-10-04T12:20:44.289Z,100849.16
2017-10-04T12:23:12.893Z,100850.81
2017-10-04T12:25:41.554Z,100842.56
2017-10-04T12:28:10.209Z,100836.16
2017-10-04T12:30:38.805Z,100841.65
2017-10-04T12:33:07.459Z,100838.23
2017-10-04T12:35:36.143Z,100842.48
2017-10-04T12:38:04.754Z,100832.76
2017-10-04T12:40:33.461Z,100830.64
2017-10-04T12:43:02.077Z,100831.19
2017-10-04T12:45:30.893Z,100836.35
2017-10-04T12:47:59.506Z,100826.45
2017-10-04T12:50:28.117Z,100822.95
2017-10-04T12:52:56.766Z,100828.20
2017-10-04T12:55:25.374Z,100818.71
2017-10-04T12:57:54.035Z,100813.00
2017-10-04T13:00:22.657Z,100809.64
2017-10-04T13:02:51.321Z,100803.55
2017-10-04T13:05:19.922Z,100807.06
2017-10-04T13:07:48.581Z,100798.53
2017-10-04T13:10:17.246Z,100794.20
2017-10-04T13:12:45.872Z,100796.39
2017-10-04T13:15:14.540Z,100788.22
2017-10-04T13:17:43.188Z,100783.38
2017-10-04T13:20:11.792Z,100770.07
2017-10-04T13:22:40.450Z,100764.55
2017-10-04T13:25:09.084Z,100764.15
2017-10-04T13:27:37.751Z,100770.99
2017-10-04T13:30:06.367Z,100770.12
2017-10-04T13:32:34.991Z,100763.67
2017-10-04T13:35:03.824Z,100770.64
2017-10-04T13:37:32.430Z,100761.16
2017-10-04T13:40:01.093Z,100753.72
2017-10-04T13:42:29.723Z,100764.56
2017-10-04T13:44:58.392Z,100764.19
2017-10-04T13:47:27.247Z,100753.47
2017-10-04T13:49:55.901Z,100755.17
2017-10-04T13:52:24.385Z,100741.34
2017-10-04T13:54:53.057Z,100752.06
2017-10-04T13:57:21.730Z,100751.66
2017-10-04T13:59:50.343Z,100748.61
2017-10-04T14:02:18.949Z,100737.88
2017-10-04T14:04:47.951Z,100738.56
2017-10-04T14:07:16.574Z,100722.53
2017-10-04T14:09:45.252Z,100717.74
2017-10-04T14:12:13.876Z,100711.70
2017-10-04T14:14:42.538Z,100701.44
2017-10-04T14:17:11.158Z,100704.70
2017-10-04T14:19:39.828Z,100702.08
2017-10-04T14:22:08.533Z,100702.44
2017-10-04T14:24:37.181Z,100695.58
2017-10-04T14:27:05.859Z,100688.65
2017-10-04T14:29:34.453Z,100685.66
2017-10-04T14:32:03.097Z,100699.70
2017-10-04T14:34:31.739Z,100690.35
2017-10-04T14:37:00.342Z,100693.88
2017-10-04T14:39:29.003Z,100678.91
2017-10-04T14:41:57.618Z,100677.62
2017-10-04T14:44:26.266Z,100675.13
2017-10-04T14:46:54.918Z,100670.48
2017-10-04T14:49:23.583Z,100673.02
2017-10-04T14:51:52.186Z,100677.08
2017-10-04T14:54:20.837Z,100672.84
2017-10-04T14:56:49.561Z,100665.89
2017-10-04T14:59:18.232Z,100655.76
2017-10-04T15:01:46.950Z,100651.48
2017-10-04T15:04:15.562Z,100648.80
2017-10-04T15:06:44.325Z,100661.91
2017-10-04T15:09:12.978Z,100659.42
2017-10-04T15:11:41.618Z,100649.67
2017-10-04T15:14:10.255Z,100654.88
2017-10-04T15:16:38.995Z,100651.09
2017-10-04T15:19:07.637Z,100642.28
2017-10-04T15:21:36.373Z,100652.07
2017-10-04T15:24:05.074Z,100642.68
2017-10-04T15:26:33.769Z,100648.73
2017-10-04T15:29:02.445Z,100635.03
2017-10-04T15:31:31.093Z,100653.08
2017-10-04T15:33:59.797Z,100641.25
2017-10-04T15:36:28.500Z,100636.19
2017-10-04T15:38:56.997Z,100637.63
2017-10-04T15:41:25.654Z,100625.35
2017-10-04T15:43:54.296Z,100640.66
2017-10-04T15:46:22.908Z,100638.24
2017-10-04T15:48:51.590Z,100637.56
2017-10-04T15:51:20.381Z,100644.83
2017-10-04T15:53:48.989Z,100643.17
2017-10-04T15:56:17.729Z,100622.64
2017-10-04T15:58:46.334Z,100617.59
2017-10-04T16:01:15.132Z,100606.08
2017-10-04T16:03:43.734Z,100619.13
2017-10-04T16:06:12.381Z,100614.53
2017-10-04T16:08:41.065Z,100614.53
2017-10-04T16:11:09.697Z,100608.23
2017-10-04T16:13:38.208Z,100607.41
2017-10-04T16:16:06.869Z,100600.95
2017-10-04T16:18:35.533Z,100609.20
2017-10-04T16:21:04.154Z,100594.84
2017-10-04T16:23:32.801Z,100615.48
2017-10-04T16:26:01.418Z,100610.37
2017-10-04T16:28:30.189Z,100606.28
2017-10-04T16:30:58.890Z,100605.82
2017-10-04T16:33:27.546Z,100607.63
2017-10-04T16:35:56.210Z,100611.21
2017-10-04T16:38:24.734Z,100601.69
2017-10-04T16:40:53.392Z,100598.84
2017-10-04T16:43:22.051Z,100585.59
2017-10-04T16:45:50.708Z,100599.20
2017-10-04T16:48:19.412Z,100582.55
2017-10-04T16:50:48.057Z,100589.61
2017-10-04T16:53:23.076Z,100588.88
2017-10-04T16:55:56.422Z,100585.79
2017-10-04T16:58:25.278Z,100592.05
2017-10-04T17:00:53.903Z,100587.36
2017-10-04T17:03:22.561Z,100595.59
2017-10-04T17:05:53.327Z,100602.66
2017-10-04T17:08:22.428Z,100601.30
2017-10-04T17:11:07.367Z,100605.59
2017-10-04T17:13:51.903Z,100601.97
2017-10-04T17:16:37.593Z,100591.02
2017-10-04T17:19:21.658Z,100591.53
2017-10-04T17:22:00.450Z,100583.08
2017-10-04T17:24:44.081Z,100588.00
2017-10-04T17:27:28.565Z,100589.02
2017-10-04T17:30:09.875Z,100608.93
2017-10-04T17:32:50.005Z,100598.22
2017-10-04T17:35:20.948Z,100580.25
2017-10-04T17:37:51.928Z,100583.14
2017-10-04T17:40:25.901Z,100592.11
2017-10-04T17:42:54.759Z,100593.95
2017-10-04T17:45:25.346Z,100589.40
2017-10-04T17:47:58.227Z,100582.55
2017-10-04T17:50:34.618Z,100575.84
2017-10-04T17:53:16.535Z,100596.22
2017-10-04T17:55:58.571Z,100612.17
2017-10-04T17:58:50.961Z,100602.38
2017-10-04T18:01:33.649Z,100606.83
2017-10-04T18:04:10.998Z,100599.06
2017-10-04T18:06:48.307Z,100601.92
2017-10-04T18:09:26.237Z,100606.61
2017-10-04T18:12:08.431Z,100590.52
2017-10-04T18:14:46.443Z,100589.69
2017-10-04T18:17:25.606Z,100589.69
2017-10-04T18:20:07.141Z,100584.63
2017-10-04T18:22:43.497Z,100570.48
2017-10-04T18:25:19.270Z,100571.30
2017-10-04T18:30:49.251Z,100568.92
2017-10-04T18:33:28.547Z,100559.05
2017-10-04T18:36:13.929Z,100563.26
2017-10-04T18:38:44.898Z,100569.94
2017-10-04T18:44:05.273Z,100566.72
2017-10-04T18:46:44.040Z,100570.34
2017-10-04T18:49:25.518Z,100560.89
2017-10-04T18:52:07.312Z,100557.16
2017-10-04T18:54:48.838Z,100571.41
2017-10-04T18:57:25.186Z,100563.82
2017-10-04T19:00:08.971Z,100562.58
2017-10-04T19:02:43.351Z,100553.34
2017-10-04T19:05:22.206Z,100543.38
2017-10-04T19:07:58.492Z,100547.23
2017-10-04T19:13:15.458Z,100539.23
2017-10-04T19:18:29.423Z,100553.38
2017-10-04T19:21:09.361Z,100557.24
2017-10-04T19:23:46.057Z,100558.72
2017-10-04T19:26:27.291Z,100558.13
2017-10-04T19:31:59.314Z,100561.43
2017-10-04T19:34:43.200Z,100548.16
2017-10-04T19:37:12.878Z,100542.55
2017-10-04T19:39:41.551Z,100532.30
2017-10-04T19:42:24.336Z,100522.84
2017-10-04T19:44:54.894Z,100523.72
2017-10-04T19:47:23.490Z,100528.44
2017-10-04T19:49:52.098Z,100508.69
2017-10-04T19:52:20.762Z,100507.87
2017-10-04T19:54:49.842Z,100501.85
2017-10-04T19:57:18.513Z,100516.00
2017-10-04T19:59:47.200Z,100540.34
2017-10-04T20:02:15.963Z,100528.86
2017-10-04T20:04:44.584Z,100521.83
2017-10-04T20:07:13.320Z,100524.08
2017-10-04T20:09:41.919Z,100539.52
2017-10-04T20:12:11.857Z,100538.69
2017-10-04T20:14:40.709Z,100531.89
2017-10-04T20:17:09.318Z,100542.18
2017-10-04T20:19:37.962Z,100531.80
2017-10-04T20:22:06.626Z,100534.23
2017-10-04T20:24:35.314Z,100529.17
2017-10-04T20:27:03.916Z,100523.44
2017-10-04T20:29:32.619Z,100508.50
2017-10-04T20:32:01.238Z,100512.27
2017-10-04T20:34:30.215Z,100518.25
2017-10-04T20:36:59.300Z,100515.22
2017-10-04T20:39:48.376Z,100513.97
2017-10-04T20:42:34.315Z,100515.72
2017-10-04T20:45:23.499Z,100509.18
2017-10-04T20:48:15.850Z,100507.50
2017-10-04T20:51:01.301Z,100510.53
2017-10-04T20:53:30.876Z,100514.79
2017-10-04T20:55:59.514Z,100513.27
2017-10-04T20:58:28.134Z,100510.75
2017-10-04T21:00:56.799Z,100511.94
2017-10-04T21:03:25.415Z,100505.88
2017-10-04T21:05:54.073Z,100512.77
2017-10-04T21:08:22.685Z,100511.16
2017-10-04T21:10:51.297Z,100508.63
2017-10-04T21:13:19.950Z,100511.80
2017-10-04T21:15:48.597Z,100510.98
2017-10-04T21:18:17.213Z,100505.83
2017-10-04T21:20:45.860Z,100502.80
2017-10-04T21:23:14.473Z,100501.52
2017-10-04T21:25:43.134Z,100500.64
2017-10-04T21:28:11.669Z,100493.75
2017-10-04T21:30:42.321Z,100483.91
2017-10-04T21:33:12.192Z,100474.08
2017-10-04T21:35:42.636Z,100463.70
2017-10-04T21:38:12.580Z,100472.38
2017-10-04T21:40:43.356Z,100473.12
2017-10-04T21:43:12.086Z,100473.06
2017-10-04T21:45:40.746Z,100482.58
2017-10-04T21:48:09.363Z,100475.23
2017-10-04T21:50:38.009Z,100475.27
2017-10-04T21:53:06.659Z,100471.45
2017-10-04T21:55:35.285Z,100479.64
2017-10-04T21:58:03.935Z,100472.75
2017-10-04T22:00:32.588Z,100467.73
2017-10-04T22:03:01.189Z,100474.91
2017-10-04T22:05:29.899Z,100465.58
2017-10-04T22:07:58.524Z,100442.42
2017-10-04T22:10:27.173Z,100451.38
2017-10-04T22:12:55.849Z,100456.48
2017-10-04T22:15:24.529Z,100461.21
2017-10-04T22:17:53.191Z,100461.30
2017-10-04T22:20:21.838Z,100458.36
2017-10-04T22:22:50.493Z,100454.00
2017-10-04T22:25:19.251Z,100445.04
2017-10-04T22:30:35.793Z,100452.30
2017-10-04T22:33:09.728Z,100460.80
2017-10-04T22:35:42.959Z,100460.44
2017-10-04T22:38:15.537Z,100438.23
2017-10-04T22:40:44.489Z,100429.19
2017-10-04T22:43:14.402Z,100431.77
2017-10-04T22:45:44.626Z,100428.27
2017-10-04T22:48:13.397Z,100424.87
2017-10-04T22:50:42.094Z,100409.94
2017-10-04T22:53:10.801Z,100404.70
2017-10-04T22:55:39.565Z,100412.05
2017-10-04T22:58:08.334Z,100406.17
2017-10-04T23:00:36.999Z,100394.27
2017-10-04T23:03:05.617Z,100383.13
2017-10-04T23:05:34.219Z,100388.77
2017-10-04T23:08:02.866Z,100384.50
2017-10-04T23:10:31.470Z,100390.98
2017-10-04T23:13:00.154Z,100384.19
2017-10-04T23:15:28.823Z,100392.27
2017-10-04T23:24:59.522Z,100391.45
2017-10-04T23:27:28.171Z,100380.45
2017-10-04T23:29:56.845Z,100378.89
2017-10-04T23:32:25.470Z,100361.34
2017-10-04T23:34:54.123Z,100350.23
2017-10-04T23:37:22.778Z,100343.07
2017-10-04T23:39:51.428Z,100337.78
2017-10-04T23:42:20.037Z,100356.25
2017-10-04T23:44:48.674Z,100347.29
2017-10-04T23:47:17.293Z,100333.75
2017-10-04T23:49:45.961Z,100342.81
2017-10-04T23:52:14.593Z,100343.77
2017-10-04T23:54:43.216Z,100339.78
2017-10-04T23:57:11.874Z,100339.78
2017-10-04T23:59:40.502Z,100323.16
